Time,TemperatureF,DewpointF,PressureIn,WindDirection,WindDirectionDegrees,WindSpeedMPH,WindSpeedGustMPH,Humidity,HourlyPrecipIn,Conditions,Clouds,dailyrainin,SoftwareType,DateUTC
2013-01-19 00:02:00,29.0,7.0,30.13,North,-999,-999.0,-999.0,39,-99.99,,,-99.99,,2013-01-19 07:02:00,
2013-01-19 00:12:00,29.0,7.0,30.13,North,-999,-999.0,-999.0,39,-99.99,,,-99.99,,2013-01-19 07:12:00,
2013-01-19 00:22:00,30.0,6.0,30.15,North,-999,-999.0,-999.0,37,-99.99,,,-99.99,,2013-01-19 07:22:00,
2013-01-19 00:33:00,30.0,6.0,30.15,North,-999,-999.0,-999.0,37,-99.99,,,-99.99,,2013-01-19 07:33:00,
2013-01-19 00:42:00,30.0,6.0,30.15,North,-999,-999.0,-999.0,37,-99.99,,,-99.99,,2013-01-19 07:42:00,
2013-01-19 00:52:00,27.0,7.0,30.16,North,-999,-999.0,-999.0,41,-99.99,,,-99.99,,2013-01-19 07:52:00,
2013-01-19 01:02:00,27.0,7.0,30.16,North,-999,-999.0,-999.0,41,-99.99,,,-99.99,,2013-01-19 08:02:00,
2013-01-19 01:12:00,26.0,6.0,30.17,North,-999,-999.0,-999.0,42,-99.99,,,-99.99,,2013-01-19 08:12:00,
2013-01-19 01:22:00,26.0,6.0,30.17,North,-999,-999.0,-999.0,42,-99.99,,,-99.99,,2013-01-19 08:22:00,
2013-01-19 01:33:00,26.0,6.0,30.17,North,-999,-999.0,-999.0,42,-99.99,,,-99.99,,2013-01-19 08:33:00,
2013-01-19 01:43:00,26.0,6.0,30.17,North,-999,-999.0,-999.0,42,-99.99,,,-99.99,,2013-01-19 08:43:00,
2013-01-19 01:53:00,28.0,5.0,30.16,North,-999,-999.0,-999.0,37,-99.99,,,-99.99,,2013-01-19 08:53:00,
2013-01-19 02:02:00,28.0,5.0,30.16,North,-999,-999.0,-999.0,37,-99.99,,,-99.99,,2013-01-19 09:02:00,
2013-01-19 02:12:00,31.0,4.0,30.18,North,-999,-999.0,-999.0,31,-99.99,,,-99.99,,2013-01-19 09:12:00,
2013-01-19 02:22:00,31.0,4.0,30.18,North,-999,-999.0,-999.0,31,-99.99,,,-99.99,,2013-01-19 09:22:00,
2013-01-19 02:33:00,31.0,4.0,30.18,North,-999,-999.0,-999.0,31,-99.99,,,-99.99,,2013-01-19 09:33:00,
2013-01-19 02:43:00,26.0,5.0,30.18,North,-999,-999.0,-999.0,39,-99.99,,,-99.99,,2013-01-19 09:43:00,
2013-01-19 02:53:00,26.0,5.0,30.18,North,-999,-999.0,-999.0,39,-99.99,,,-99.99,,2013-01-19 09:53:00,
2013-01-19 03:02:00,26.0,5.0,30.18,North,-999,-999.0,-999.0,39,-99.99,,,-99.99,,2013-01-19 10:02:00,
2013-01-19 03:12:00,29.0,3.0,30.16,North,-999,-999.0,-999.0,32,-99.99,,,-99.99,,2013-01-19 10:12:00,
2013-01-19 03:22:00,29.0,3.0,30.16,North,-999,-999.0,-999.0,32,-99.99,,,-99.99,,2013-01-19 10:22:00,
2013-01-19 03:33:00,29.0,3.0,30.16,North,-999,-999.0,-999.0,32,-99.99,,,-99.99,,2013-01-19 10:33:00,
2013-01-19 03:43:00,31.0,2.0,30.17,North,-999,-999.0,-999.0,28,-99.99,,,-99.99,,2013-01-19 10:43:00,
2013-01-19 03:53:00,31.0,2.0,30.17,North,-999,-999.0,-999.0,28,-99.99,,,-99.99,,2013-01-19 10:53:00,
2013-01-19 04:02:00,31.0,2.0,30.17,North,-999,-999.0,-999.0,28,-99.99,,,-99.99,,2013-01-19 11:02:00,
2013-01-19 04:12:00,26.0,4.0,30.18,North,-999,-999.0,-999.0,38,-99.99,,,-99.99,,2013-01-19 11:12:00,
2013-01-19 05:48:00,26.0,3.0,30.22,North,-999,-999.0,-999.0,36,-99.99,,,-99.99,,2013-01-19 12:48:00,
2013-01-19 05:52:00,26.0,3.0,30.22,North,-999,-999.0,-999.0,36,-99.99,,,-99.99,,2013-01-19 12:52:00,
2013-01-19 06:03:00,26.0,3.0,30.22,North,-999,-999.0,-999.0,36,-99.99,,,-99.99,,2013-01-19 13:03:00,
2013-01-19 06:12:00,26.0,2.0,30.21,North,-999,-999.0,-999.0,35,-99.99,,,-99.99,,2013-01-19 13:12:00,
2013-01-19 06:22:00,26.0,2.0,30.21,North,-999,-999.0,-999.0,35,-99.99,,,-99.99,,2013-01-19 13:22:00,
2013-01-19 06:33:00,26.0,2.0,30.21,North,-999,-999.0,-999.0,35,-99.99,,,-99.99,,2013-01-19 13:33:00,
2013-01-19 06:42:00,26.0,2.0,30.21,North,-999,-999.0,-999.0,35,-99.99,,,-99.99,,2013-01-19 13:42:00,
2013-01-19 06:52:00,22.0,3.0,30.22,North,-999,-999.0,-999.0,44,-99.99,,,-99.99,,2013-01-19 13:52:00,
2013-01-19 07:02:00,22.0,3.0,30.22,North,-999,-999.0,-999.0,44,-99.99,,,-99.99,,2013-01-19 14:02:00,
2013-01-19 07:12:00,18.0,2.0,30.24,North,-999,-999.0,-999.0,49,-99.99,,,-99.99,,2013-01-19 14:12:00,
2013-01-19 07:23:00,18.0,2.0,30.24,North,-999,-999.0,-999.0,49,-99.99,,,-99.99,,2013-01-19 14:23:00,
2013-01-19 07:33:00,18.0,2.0,30.24,North,-999,-999.0,-999.0,49,-99.99,,,-99.99,,2013-01-19 14:33:00,
2013-01-19 07:43:00,21.0,2.0,30.25,North,-999,-999.0,-999.0,44,-99.99,,,-99.99,,2013-01-19 14:43:00,
2013-01-19 07:53:00,21.0,2.0,30.25,North,-999,-999.0,-999.0,44,-99.99,,,-99.99,,2013-01-19 14:53:00,
2013-01-19 08:03:00,21.0,2.0,30.25,North,-999,-999.0,-999.0,44,-99.99,,,-99.99,,2013-01-19 15:03:00,
2013-01-19 08:12:00,25.0,2.0,30.25,North,-999,-999.0,-999.0,35,-99.99,,,-99.99,,2013-01-19 15:12:00,
2013-01-19 08:23:00,25.0,2.0,30.25,North,-999,-999.0,-999.0,35,-99.99,,,-99.99,,2013-01-19 15:23:00,
2013-01-19 08:33:00,25.0,2.0,30.25,North,-999,-999.0,-999.0,35,-99.99,,,-99.99,,2013-01-19 15:33:00,
2013-01-19 08:43:00,23.0,2.0,30.27,North,-999,-999.0,-999.0,40,-99.99,,,-99.99,,2013-01-19 15:43:00,
2013-01-19 08:53:00,23.0,2.0,30.27,North,-999,-999.0,-999.0,40,-99.99,,,-99.99,,2013-01-19 15:53:00,
2013-01-19 09:03:00,23.0,2.0,30.27,North,-999,-999.0,-999.0,40,-99.99,,,-99.99,,2013-01-19 16:03:00,
2013-01-19 09:13:00,23.0,2.0,30.27,North,-999,-999.0,-999.0,40,-99.99,,,-99.99,,2013-01-19 16:13:00,
2013-01-19 09:23:00,25.0,3.0,30.27,North,-999,-999.0,-999.0,38,-99.99,,,-99.99,,2013-01-19 16:23:00,
2013-01-19 09:33:00,25.0,3.0,30.27,North,-999,-999.0,-999.0,38,-99.99,,,-99.99,,2013-01-19 16:33:00,
2013-01-19 09:43:00,25.0,3.0,30.27,North,-999,-999.0,-999.0,38,-99.99,,,-99.99,,2013-01-19 16:43:00,
2013-01-19 09:54:00,24.0,7.0,30.28,North,-999,-999.0,-999.0,46,-99.99,,,-99.99,,2013-01-19 16:54:00,
2013-01-19 10:02:00,24.0,7.0,30.28,North,-999,-999.0,-999.0,46,-99.99,,,-99.99,,2013-01-19 17:02:00,
2013-01-19 10:19:00,26.0,10.0,30.29,North,-999,-999.0,-999.0,49,-99.99,,,-99.99,,2013-01-19 17:19:00,
2013-01-19 10:28:00,26.0,10.0,30.29,North,-999,-999.0,-999.0,49,-99.99,,,-99.99,,2013-01-19 17:28:00,
2013-01-19 10:35:00,26.0,10.0,30.29,North,-999,-999.0,-999.0,49,-99.99,,,-99.99,,2013-01-19 17:35:00,
2013-01-19 10:47:00,26.0,10.0,30.29,North,-999,-999.0,-999.0,49,-99.99,,,-99.99,,2013-01-19 17:47:00,
2013-01-19 10:53:00,34.0,7.0,30.28,North,-999,-999.0,-999.0,31,-99.99,,,-99.99,,2013-01-19 17:53:00,
2013-01-19 11:11:00,34.0,7.0,30.28,North,-999,-999.0,-999.0,31,-99.99,,,-99.99,,2013-01-19 18:11:00,
2013-01-19 11:25:00,35.0,7.0,30.28,North,-999,-999.0,-999.0,30,-99.99,,,-99.99,,2013-01-19 18:25:00,
2013-01-19 11:34:00,35.0,7.0,30.28,North,-999,-999.0,-999.0,30,-99.99,,,-99.99,,2013-01-19 18:34:00,
2013-01-19 11:47:00,35.0,7.0,30.28,North,-999,-999.0,-999.0,30,-99.99,,,-99.99,,2013-01-19 18:47:00,
2013-01-19 11:59:00,39.0,6.0,30.27,North,-999,-999.0,-999.0,25,-99.99,,,-99.99,,2013-01-19 18:59:00,
2013-01-19 12:19:00,38.0,12.0,30.26,North,-999,-999.0,-999.0,34,-99.99,,,-99.99,,2013-01-19 19:19:00,
2013-01-19 12:28:00,38.0,12.0,30.26,North,-999,-999.0,-999.0,34,-99.99,,,-99.99,,2013-01-19 19:28:00,
2013-01-19 12:38:00,38.0,12.0,30.26,North,-999,-999.0,-999.0,34,-99.99,,,-99.99,,2013-01-19 19:38:00,
2013-01-19 12:54:00,40.0,11.0,30.25,North,-999,-999.0,-999.0,31,-99.99,,,-99.99,,2013-01-19 19:54:00,
2013-01-19 13:10:00,40.0,11.0,30.25,North,-999,-999.0,-999.0,31,-99.99,,,-99.99,,2013-01-19 20:10:00,
2013-01-19 13:19:00,40.0,11.0,30.25,North,-999,-999.0,-999.0,31,-99.99,,,-99.99,,2013-01-19 20:19:00,
2013-01-19 13:24:00,40.0,9.0,30.24,North,-999,-999.0,-999.0,28,-99.99,,,-99.99,,2013-01-19 20:24:00,
2013-01-19 13:38:00,40.0,9.0,30.24,North,-999,-999.0,-999.0,28,-99.99,,,-99.99,,2013-01-19 20:38:00,
2013-01-19 13:47:00,39.0,11.0,30.24,North,-999,-999.0,-999.0,30,-99.99,,,-99.99,,2013-01-19 20:47:00,
2013-01-19 13:54:00,39.0,11.0,30.24,North,-999,-999.0,-999.0,30,-99.99,,,-99.99,,2013-01-19 20:54:00,
2013-01-19 14:06:00,39.0,11.0,30.24,North,-999,-999.0,-999.0,30,-99.99,,,-99.99,,2013-01-19 21:06:00,
2013-01-19 14:14:00,39.0,11.0,30.24,North,-999,-999.0,-999.0,30,-99.99,,,-99.99,,2013-01-19 21:14:00,
2013-01-19 14:25:00,40.0,8.0,30.23,North,-999,-999.0,-999.0,27,-99.99,,,-99.99,,2013-01-19 21:25:00,
2013-01-19 14:50:00,41.0,8.0,30.23,North,-999,-999.0,-999.0,25,-99.99,,,-99.99,,2013-01-19 21:50:00,
2013-01-19 14:56:00,41.0,8.0,30.23,North,-999,-999.0,-999.0,25,-99.99,,,-99.99,,2013-01-19 21:56:00,
2013-01-19 15:13:00,41.0,8.0,30.23,North,-999,-999.0,-999.0,25,-99.99,,,-99.99,,2013-01-19 22:13:00,
2013-01-19 15:25:00,40.0,7.0,30.22,North,-999,-999.0,-999.0,25,-99.99,,,-99.99,,2013-01-19 22:25:00,
2013-01-19 15:35:00,40.0,7.0,30.22,North,-999,-999.0,-999.0,25,-99.99,,,-99.99,,2013-01-19 22:35:00,
2013-01-19 15:47:00,39.0,7.0,30.22,North,-999,-999.0,-999.0,25,-99.99,,,-99.99,,2013-01-19 22:47:00,
2013-01-19 15:54:00,39.0,7.0,30.22,North,-999,-999.0,-999.0,25,-99.99,,,-99.99,,2013-01-19 22:54:00,
2013-01-19 16:13:00,39.0,7.0,30.22,North,-999,-999.0,-999.0,25,-99.99,,,-99.99,,2013-01-19 23:13:00,
2013-01-19 16:25:00,38.0,7.0,30.23,North,-999,-999.0,-999.0,26,-99.99,,,-99.99,,2013-01-19 23:25:00,
2013-01-19 16:35:00,38.0,7.0,30.23,North,-999,-999.0,-999.0,26,-99.99,,,-99.99,,2013-01-19 23:35:00,
2013-01-19 16:50:00,38.0,7.0,30.23,North,-999,-999.0,-999.0,26,-99.99,,,-99.99,,2013-01-19 23:50:00,
2013-01-19 17:06:00,38.0,7.0,30.23,North,-999,-999.0,-999.0,27,-99.99,,,-99.99,,2013-01-20 00:06:00,
2013-01-19 17:15:00,38.0,7.0,30.23,North,-999,-999.0,-999.0,27,-99.99,,,-99.99,,2013-01-20 00:15:00,
2013-01-19 17:25:00,38.0,7.0,30.23,North,-999,-999.0,-999.0,27,-99.99,,,-99.99,,2013-01-20 00:25:00,
2013-01-19 18:04:00,34.0,8.0,30.24,North,-999,-999.0,-999.0,33,-99.99,,,-99.99,,2013-01-20 01:04:00,
2013-01-19 18:19:00,33.0,7.0,30.24,North,-999,-999.0,-999.0,33,-99.99,,,-99.99,,2013-01-20 01:19:00,
2013-01-19 18:25:00,33.0,7.0,30.24,North,-999,-999.0,-999.0,33,-99.99,,,-99.99,,2013-01-20 01:25:00,
2013-01-19 18:36:00,33.0,7.0,30.24,North,-999,-999.0,-999.0,33,-99.99,,,-99.99,,2013-01-20 01:36:00,
2013-01-19 18:47:00,33.0,7.0,30.24,North,-999,-999.0,-999.0,33,-99.99,,,-99.99,,2013-01-20 01:47:00,
2013-01-19 18:57:00,33.0,5.0,30.24,North,-999,-999.0,-999.0,30,-99.99,,,-99.99,,2013-01-20 01:57:00,
2013-01-19 19:07:00,33.0,5.0,30.24,North,-999,-999.0,-999.0,30,-99.99,,,-99.99,,2013-01-20 02:07:00,
2013-01-19 19:14:00,30.0,6.0,30.24,North,-999,-999.0,-999.0,36,-99.99,,,-99.99,,2013-01-20 02:14:00,
2013-01-19 19:25:00,30.0,6.0,30.24,North,-999,-999.0,-999.0,36,-99.99,,,-99.99,,2013-01-20 02:25:00,
2013-01-19 19:35:00,30.0,6.0,30.24,North,-999,-999.0,-999.0,36,-99.99,,,-99.99,,2013-01-20 02:35:00,
2013-01-19 19:44:00,30.0,6.0,30.24,North,-999,-999.0,-999.0,36,-99.99,,,-99.99,,2013-01-20 02:44:00,
2013-01-19 19:55:00,29.0,5.0,30.23,North,-999,-999.0,-999.0,36,-99.99,,,-99.99,,2013-01-20 02:55:00,
2013-01-19 20:14:00,29.0,5.0,30.23,North,-999,-999.0,-999.0,36,-99.99,,,-99.99,,2013-01-20 03:14:00,
2013-01-19 20:24:00,26.0,6.0,30.23,North,-999,-999.0,-999.0,41,-99.99,,,-99.99,,2013-01-20 03:24:00,
2013-01-19 20:38:00,26.0,6.0,30.23,North,-999,-999.0,-999.0,41,-99.99,,,-99.99,,2013-01-20 03:38:00,
2013-01-19 20:45:00,27.0,5.0,30.22,North,-999,-999.0,-999.0,38,-99.99,,,-99.99,,2013-01-20 03:45:00,
2013-01-19 20:54:00,27.0,5.0,30.22,North,-999,-999.0,-999.0,38,-99.99,,,-99.99,,2013-01-20 03:54:00,
2013-01-19 21:05:00,27.0,5.0,30.22,North,-999,-999.0,-999.0,38,-99.99,,,-99.99,,2013-01-20 04:05:00,
2013-01-19 21:15:00,28.0,5.0,30.21,North,-999,-999.0,-999.0,37,-99.99,,,-99.99,,2013-01-20 04:15:00,
2013-01-19 21:24:00,28.0,5.0,30.21,North,-999,-999.0,-999.0,37,-99.99,,,-99.99,,2013-01-20 04:24:00,
2013-01-19 21:35:00,28.0,5.0,30.21,North,-999,-999.0,-999.0,37,-99.99,,,-99.99,,2013-01-20 04:35:00,
2013-01-19 21:44:00,28.0,5.0,30.21,North,-999,-999.0,-999.0,37,-99.99,,,-99.99,,2013-01-20 04:44:00,
2013-01-19 21:54:00,27.0,5.0,30.22,North,-999,-999.0,-999.0,39,-99.99,,,-99.99,,2013-01-20 04:54:00,
2013-01-19 22:04:00,27.0,5.0,30.22,North,-999,-999.0,-999.0,39,-99.99,,,-99.99,,2013-01-20 05:04:00,
2013-01-19 22:12:00,31.0,2.0,30.23,North,-999,-999.0,-999.0,29,-99.99,,,-99.99,,2013-01-20 05:12:00,
2013-01-19 22:22:00,31.0,2.0,30.23,North,-999,-999.0,-999.0,29,-99.99,,,-99.99,,2013-01-20 05:22:00,
2013-01-19 22:32:00,31.0,2.0,30.23,North,-999,-999.0,-999.0,29,-99.99,,,-99.99,,2013-01-20 05:32:00,
2013-01-19 22:42:00,31.0,2.0,30.21,North,-999,-999.0,-999.0,29,-99.99,,,-99.99,,2013-01-20 05:42:00,
2013-01-19 22:53:00,31.0,2.0,30.21,North,-999,-999.0,-999.0,29,-99.99,,,-99.99,,2013-01-20 05:53:00,
2013-01-19 23:02:00,31.0,2.0,30.21,North,-999,-999.0,-999.0,29,-99.99,,,-99.99,,2013-01-20 06:02:00,
2013-01-19 23:12:00,31.0,2.0,30.21,North,-999,-999.0,-999.0,29,-99.99,,,-99.99,,2013-01-20 06:12:00,
2013-01-19 23:22:00,30.0,3.0,30.21,North,-999,-999.0,-999.0,32,-99.99,,,-99.99,,2013-01-20 06:22:00,
2013-01-19 23:33:00,30.0,3.0,30.21,North,-999,-999.0,-999.0,32,-99.99,,,-99.99,,2013-01-20 06:33:00,
2013-01-19 23:42:00,28.0,4.0,30.21,North,-999,-999.0,-999.0,36,-99.99,,,-99.99,,2013-01-20 06:42:00,
2013-01-19 23:52:00,28.0,4.0,30.21,North,-999,-999.0,-999.0,36,-99.99,,,-99.99,,2013-01-20 06:52:00,